Time;durP1;ratioP1;P1;durP2;ratioP2;P2;SDS_P1;SDS_P2;PMS_P1;PMS_P2;Temp;Humidity;BMP_temperature;BMP_pressure;BME280_temperature;BME280_humidity;BME280_pressure;Samples;Min_cycle;Max_cycle;Signal;HPM_P1;HPM_P2
2023/08/16 00:01:13;;;;;;;14.30;13.00;;;29.80;99.90;;;;;;5052047;28;20403;-67
2023/08/16 00:03:39;;;;;;;13.98;12.82;;;29.70;99.90;;;;;;5053222;28;20111;-67
2023/08/16 00:06:14;;;;;;;14.80;13.23;;;29.70;99.90;;;;;;5052215;28;20142;-68
2023/08/16 00:08:40;;;;;;;14.95;13.48;;;29.70;99.90;;;;;;5050785;28;20506;-67
2023/08/16 00:11:07;;;;;;;13.70;12.40;;;29.70;99.90;;;;;;5052916;28;20041;-67
2023/08/16 00:13:33;;;;;;;15.25;13.75;;;29.60;99.90;;;;;;5050905;28;20486;-67
2023/08/16 00:16:00;;;;;;;14.55;13.35;;;29.60;99.90;;;;;;5052359;28;20017;-68
2023/08/16 00:18:27;;;;;;;15.27;13.98;;;29.50;99.90;;;;;;5051720;28;20020;-67
2023/08/16 00:20:53;;;;;;;13.90;12.63;;;29.40;99.90;;;;;;5051791;28;20502;-67
2023/08/16 00:23:18;;;;;;;16.02;14.65;;;29.50;99.90;;;;;;5053194;28;20067;-67
2023/08/16 00:25:44;;;;;;;15.15;13.88;;;29.50;99.90;;;;;;5052557;28;20078;-68
2023/08/16 00:28:10;;;;;;;14.38;12.90;;;29.40;99.90;;;;;;5043741;28;20030;-68
2023/08/16 00:30:36;;;;;;;14.07;12.80;;;;;;;;;;5043996;28;20021;-68
2023/08/16 00:33:02;;;;;;;13.35;12.20;;;;;;;;;;5051700;28;20027;-68
2023/08/16 00:35:28;;;;;;;13.75;12.35;;;;;;;;;;5039530;28;20033;-68
2023/08/16 00:37:58;;;;;;;14.05;12.65;;;;;;;;;;5053040;28;20075;-67
2023/08/16 00:40:25;;;;;;;12.93;11.95;;;;;;;;;;5052132;28;20487;-67
2023/08/16 00:42:51;;;;;;;13.73;12.52;;;;;;;;;;5051063;28;20040;-67
2023/08/16 00:45:17;;;;;;;13.70;12.63;;;;;;;;;;5051743;28;20048;-68
2023/08/16 00:47:44;;;;;;;13.60;12.32;;;;;;;;;;5041895;28;20017;-68
2023/08/16 00:50:10;;;;;;;12.88;11.77;;;;;;;;;;5051410;28;20120;-67
2023/08/16 00:52:36;;;;;;;12.93;11.80;;;;;;;;;;5049659;28;20033;-67
2023/08/16 00:55:03;;;;;;;14.07;12.95;;;;;;;;;;5051829;28;20068;-68
2023/08/16 00:57:30;;;;;;;12.95;11.80;;;;;;;;;;5048899;28;20064;-68
2023/08/16 00:59:56;;;;;;;13.23;12.00;;;;;;;;;;5048518;28;20455;-68
2023/08/16 01:02:23;;;;;;;12.93;11.93;;;;;;;;;;5051373;28;20486;-67
2023/08/16 01:04:49;;;;;;;13.10;12.15;;;;;;;;;;5047824;28;20069;-67
2023/08/16 01:07:15;;;;;;;13.77;12.60;;;;;;;;;;5050153;28;20024;-67
2023/08/16 01:09:42;;;;;;;11.82;10.98;;;;;;;;;;5052535;28;20114;-68
2023/08/16 01:12:15;;;;;;;11.90;10.88;;;;;;;;;;5049026;28;20036;-67
2023/08/16 01:14:47;;;;;;;10.90;9.98;;;;;;;;;;5049195;28;20029;-68
2023/08/16 01:17:15;;;;;;;11.70;10.60;;;;;;;;;;5050366;28;20490;-67
2023/08/16 01:19:41;;;;;;;11.52;10.45;;;;;;;;;;5052044;28;20024;-67
2023/08/16 01:22:17;;;;;;;11.30;10.45;;;;;;;;;;5048677;28;20532;-67
2023/08/16 01:24:58;;;;;;;11.23;10.23;;;;;;;;;;5052241;28;20368;-67
2023/08/16 01:27:24;;;;;;;11.70;10.70;;;;;;;;;;5049414;28;20490;-67
2023/08/16 01:29:52;;;;;;;11.45;10.45;;;;;;;;;;5048647;28;20116;-67
2023/08/16 01:32:18;;;;;;;11.63;10.55;;;;;;;;;;5048450;28;20478;-68
2023/08/16 01:34:44;;;;;;;10.10;9.27;;;;;;;;;;5051691;28;20029;-67
2023/08/16 01:37:10;;;;;;;10.50;9.50;;;;;;;;;;5052203;28;20021;-67
2023/08/16 01:39:38;;;;;;;10.57;9.68;;;;;;;;;;5050611;28;20029;-68
2023/08/16 01:42:06;;;;;;;11.10;10.10;;;;;;;;;;5048001;28;20533;-67
2023/08/16 01:44:33;;;;;;;9.63;8.93;;;;;;;;;;5052154;28;20049;-67
2023/08/16 01:47:00;;;;;;;10.18;9.45;;;;;;;;;;5049418;28;20021;-68
2023/08/16 01:49:27;;;;;;;10.48;9.65;;;;;;;;;;5050981;28;20025;-68
2023/08/16 01:51:53;;;;;;;10.23;9.43;;;;;;;;;;5050505;28;20035;-68
2023/08/16 01:54:22;;;;;;;10.63;9.55;;;;;;;;;;5052163;28;20021;-68
2023/08/16 01:56:48;;;;;;;10.70;9.85;;;;;;;;;;5052657;28;20120;-68
2023/08/16 01:59:14;;;;;;;11.18;10.15;;;;;;;;;;5048644;28;20058;-68
2023/08/16 02:01:40;;;;;;;11.00;9.95;;;;;;;;;;5039844;28;20121;-68
2023/08/16 02:04:06;;;;;;;9.73;8.70;;;;;;;;;;5035229;28;20067;-68
2023/08/16 02:06:35;;;;;;;10.45;9.45;;;;;;;;;;5051535;28;20080;-68
2023/08/16 02:09:01;;;;;;;9.25;8.38;;;;;;;;;;5046880;28;20029;-68
2023/08/16 02:11:30;;;;;;;8.48;7.65;;;;;;;;;;5050434;28;20036;-68
2023/08/16 02:13:57;;;;;;;8.73;7.90;;;;;;;;;;5049626;28;20044;-68
2023/08/16 02:16:24;;;;;;;8.20;7.40;;;;;;;;;;5051795;28;20025;-68
2023/08/16 02:18:51;;;;;;;7.53;6.82;;;;;;;;;;5050325;28;20372;-68
2023/08/16 02:21:18;;;;;;;8.07;7.38;;;;;;;;;;5045599;28;20032;-68
2023/08/16 02:23:44;;;;;;;7.70;6.85;;;;;;;;;;5033737;28;20087;-68
2023/08/16 02:26:12;;;;;;;6.65;6.15;;;;;;;;;;5051567;28;20126;-68
2023/08/16 02:28:38;;;;;;;7.75;7.05;;;;;;;;;;5055486;28;20024;-68
2023/08/16 02:31:05;;;;;;;7.82;6.93;;;;;;;;;;5049481;28;20044;-68
2023/08/16 02:33:32;;;;;;;7.40;6.75;;;;;;;;;;5053772;28;20040;-68
2023/08/16 02:36:04;;;;;;;9.32;6.85;;;;;;;;;;5047257;28;20025;-68
2023/08/16 02:38:31;;;;;;;7.72;6.88;;;;;;;;;;5049597;28;20032;-68
2023/08/16 02:40:57;;;;;;;7.45;6.82;;;;;;;;;;5045554;28;20130;-68
2023/08/16 02:43:23;;;;;;;9.25;7.72;;;;;;;;;;5055356;28;20486;-68
2023/08/16 02:45:49;;;;;;;8.05;7.45;;;;;;;;;;5052123;28;20409;-68
2023/08/16 02:48:15;;;;;;;8.05;7.28;;;;;;;;;;5051941;28;20017;-68
2023/08/16 02:50:41;;;;;;;7.63;7.03;;;;;;;;;;5054856;28;20040;-68
2023/08/16 02:53:07;;;;;;;7.97;7.20;;;;;;;;;;5052504;28;20042;-67
2023/08/16 02:55:33;;;;;;;7.97;6.50;;;;;;;;;;5055070;28;20037;-67
2023/08/16 02:57:59;;;;;;;7.82;7.13;;;;;;;;;;5050277;28;20047;-67
2023/08/16 03:00:25;;;;;;;7.55;6.95;;;;;;;;;;5053295;28;20503;-67
2023/08/16 03:02:51;;;;;;;7.78;7.15;;;;;;;;;;5053336;28;20041;-67
2023/08/16 03:05:17;;;;;;;6.93;6.35;;;;;;;;;;5054726;28;20045;-67
2023/08/16 03:07:43;;;;;;;8.32;7.32;;;;;;;;;;5054550;28;20029;-67
2023/08/16 03:10:09;;;;;;;8.40;7.47;;;;;;;;;;5054995;28;20078;-67
2023/08/16 03:12:35;;;;;;;8.88;7.97;;;;;;;;;;5052514;28;20033;-67
2023/08/16 03:15:02;;;;;;;7.65;7.07;;;;;;;;;;5052310;28;20426;-68
2023/08/16 03:17:28;;;;;;;8.27;7.45;;;;;;;;;;5053682;28;20024;-67
2023/08/16 03:19:54;;;;;;;7.80;7.10;;;;;;;;;;5052133;28;20478;-68
2023/08/16 03:22:20;;;;;;;8.13;7.43;;;;;;;;;;5053781;28;20052;-68
2023/08/16 03:24:49;;;;;;;7.63;6.90;;;;;;;;;;5053181;28;20071;-68
2023/08/16 03:27:16;;;;;;;8.38;7.63;;;;;;;;;;5054675;28;20024;-68
2023/08/16 03:29:42;;;;;;;8.15;7.55;;;;;;;;;;5053671;28;20055;-67
2023/08/16 03:32:08;;;;;;;8.45;7.75;;;;;;;;;;5052831;28;20029;-67
2023/08/16 03:34:34;;;;;;;8.32;7.63;;;;;;;;;;5052106;28;20037;-67
2023/08/16 03:37:00;;;;;;;8.80;7.97;;;;;;;;;;5054564;28;20104;-67
2023/08/16 03:39:26;;;;;;;8.05;7.45;;;;;;;;;;5052642;28;20056;-67
2023/08/16 03:41:52;;;;;;;8.52;7.45;;;;;;;;;;5053709;28;20029;-67
2023/08/16 03:44:18;;;;;;;7.50;6.80;;;;;;;;;;5053963;28;20067;-67
2023/08/16 03:46:44;;;;;;;8.20;7.50;;;;;;;;;;5051437;28;20071;-67
2023/08/16 03:49:10;;;;;;;7.75;7.15;;;;;;;;;;5051729;28;20024;-68
2023/08/16 03:51:37;;;;;;;8.07;7.43;;;;;;;;;;5054396;28;20382;-68
2023/08/16 03:54:03;;;;;;;7.90;7.20;;;;;;;;;;5052905;28;20520;-68
2023/08/16 03:59:33;;;;;;;9.05;7.97;;;;;;;;;;5051523;28;20040;-67
2023/08/16 04:02:03;;;;;;;9.45;7.65;;;;;;;;;;5052662;28;20029;-68
2023/08/16 04:04:30;;;;;;;8.05;7.40;;;;;;;;;;5054499;28;20033;-67
2023/08/16 04:06:57;;;;;;;7.50;6.82;;;;;;;;;;5054320;28;20071;-67
2023/08/16 04:09:23;;;;;;;8.25;7.55;;;;;;;;;;5050620;28;20546;-67
2023/08/16 04:11:50;;;;;;;11.18;8.48;;;;;;;;;;5051717;28;20106;-68
2023/08/16 04:14:16;;;;;;;9.15;8.30;;;;;;;;;;5053596;28;20055;-66
2023/08/16 04:16:42;;;;;;;8.57;7.88;;;;;;;;;;5053547;28;20494;-67
2023/08/16 04:19:10;;;;;;;8.63;7.68;;;;;;;;;;5050347;28;20060;-67
2023/08/16 04:21:38;;;;;;;8.73;7.93;;;;;;;;;;5051306;28;20033;-67
2023/08/16 04:24:04;;;;;;;8.95;8.00;;;;;;;;;;5051779;28;20103;-67
2023/08/16 04:26:30;;;;;;;9.07;7.97;;;;;;;;;;5053239;28;20083;-67
2023/08/16 04:28:56;;;;;;;10.05;9.10;;;;;;;;;;5051117;28;20104;-67
2023/08/16 04:31:22;;;;;;;9.18;8.32;;;;;;;;;;5051875;28;20025;-67
2023/08/16 04:33:51;;;;;;;8.45;7.85;;;;;;;;;;5054322;28;20040;-68
2023/08/16 04:36:18;;;;;;;8.80;8.07;;;;;;;;;;5051847;28;20449;-67
2023/08/16 04:38:44;;;;;;;10.25;9.25;;;;;;;;;;5046057;28;20025;-67
2023/08/16 04:41:10;;;;;;;9.90;8.77;;;;;;;;;;5052744;28;20028;-68
2023/08/16 04:43:36;;;;;;;9.30;8.20;;;;;;;;;;5051098;28;20029;-68
2023/08/16 04:46:02;;;;;;;8.20;7.38;;;;;;;;;;5042052;28;20044;-68
2023/08/16 04:48:28;;;;;;;7.45;6.75;;;;;;;;;;5048398;28;20021;-67
2023/08/16 04:50:54;;;;;;;7.05;6.43;;;;;;;;;;5050804;28;20029;-67
2023/08/16 04:53:20;;;;;;;6.68;6.03;;;;;;;;;;5048767;28;20036;-67
2023/08/16 04:55:46;;;;;;;6.05;5.55;;;;;;;;;;5052649;28;20029;-67
2023/08/16 04:58:12;;;;;;;6.63;6.00;;;;;;;;;;5052719;28;20032;-67
2023/08/16 05:00:38;;;;;;;6.38;5.85;;;;;;;;;;5053600;28;20033;-67
2023/08/16 05:03:10;;;;;;;9.77;6.18;;;;;;;;;;5051483;28;20017;-67
2023/08/16 05:05:36;;;;;;;6.13;5.70;;;;;;;;;;5051105;28;20045;-67
2023/08/16 05:08:02;;;;;;;5.85;5.45;;;;;;;;;;5049973;28;20094;-67
2023/08/16 05:10:28;;;;;;;5.97;5.47;;;;;;;;;;5051285;28;20534;-67
2023/08/16 05:12:54;;;;;;;6.00;5.60;;;;;;;;;;5052272;28;20497;-67
2023/08/16 05:15:20;;;;;;;6.90;6.00;;;;;;;;;;5051763;28;20488;-67
2023/08/16 05:17:47;;;;;;;6.07;5.55;;;;;;;;;;5052591;28;20052;-67
2023/08/16 05:20:13;;;;;;;6.55;5.43;;;;;;;;;;5047676;28;20048;-68
2023/08/16 05:22:39;;;;;;;5.80;5.30;;;;;;;;;;5049038;28;20025;-67
2023/08/16 05:28:14;;;;;;;7.13;5.53;;;;;;;;;;5051340;28;20576;-67
2023/08/16 05:30:40;;;;;;;6.35;5.80;;;;;;;;;;5041349;28;20036;-68
2023/08/16 05:33:06;;;;;;;6.07;5.57;;;;;;;;;;5051471;28;20036;-68
2023/08/16 05:35:35;;;;;;;5.82;5.28;;;;;;;;;;5047935;28;20061;-68
2023/08/16 05:38:04;;;;;;;6.18;5.68;;;;;;;;;;5049655;28;20025;-68
2023/08/16 05:40:30;;;;;;;8.68;6.43;;;;;;;;;;5052046;28;20036;-68
2023/08/16 05:42:56;;;;;;;7.13;6.47;;;;;;;;;;5052949;28;20479;-68
2023/08/16 05:45:26;;;;;;;6.20;5.60;;;;;;;;;;5051608;28;20037;-68
2023/08/16 05:47:52;;;;;;;5.90;5.32;;;;;;;;;;5051919;28;20032;-68
2023/08/16 05:50:18;;;;;;;6.25;5.68;;;;;;;;;;5053229;28;20025;-67
2023/08/16 05:52:44;;;;;;;6.38;5.85;;;;;;;;;;5047628;28;20029;-67
2023/08/16 05:55:10;;;;;;;5.72;5.13;;;;;;;;;;5050170;28;20036;-68
2023/08/16 05:57:36;;;;;;;6.75;6.13;;;;;;;;;;5050854;28;20024;-68
2023/08/16 06:00:02;;;;;;;6.43;5.82;;;;;;;;;;5051772;28;20135;-68
2023/08/16 06:02:37;;;;;;;6.75;5.70;;;;;;;;;;5049118;28;20111;-68
2023/08/16 06:05:04;;;;;;;7.03;6.10;;;;;;;;;;5044573;28;20053;-67
2023/08/16 06:07:30;;;;;;;5.60;5.20;;;;;;;;;;5046557;28;20087;-68
2023/08/16 06:09:57;;;;;;;7.68;5.65;;;;;;;;;;5051515;28;20033;-68
2023/08/16 06:12:23;;;;;;;6.47;5.63;;;;;;;;;;5049655;28;20471;-68
2023/08/16 06:14:49;;;;;;;7.75;5.63;;;;;;;;;;5049104;28;20544;-68
2023/08/16 06:17:15;;;;;;;7.40;6.13;;;;;;;;;;5051616;28;20029;-68
2023/08/16 06:19:41;;;;;;;6.10;5.68;;;;;;;;;;5049438;28;20108;-68
2023/08/16 06:22:07;;;;;;;7.35;5.97;;;;;;;;;;5050374;28;20100;-67
2023/08/16 06:24:35;;;;;;;6.93;6.35;;;;;;;;;;5048971;28;20136;-68
2023/08/16 06:27:01;;;;;;;6.15;5.55;;;;;;;;;;5050618;28;20057;-67
2023/08/16 06:29:27;;;;;;;6.90;6.30;;;;;;;;;;5050367;28;20027;-67
2023/08/16 06:31:55;;;;;;;9.23;7.97;;;;;;;;;;5050357;28;20029;-67
2023/08/16 06:34:21;;;;;;;8.52;7.68;;;;;;;;;;5051257;28;20482;-67
2023/08/16 06:36:48;;;;;;;8.40;7.72;;;;;;;;;;5049950;28;20030;-67
2023/08/16 06:39:14;;;;;;;10.10;9.20;;;;;;;;;;5048809;28;20414;-67
2023/08/16 06:41:40;;;;;;;9.35;8.45;;;;;;;;;;5041513;28;20026;-68
2023/08/16 06:44:07;;;;;;;9.80;8.82;;;;;;;;;;5052302;28;20029;-68
2023/08/16 06:46:33;;;;;;;10.77;9.98;;;;;;;;;;5051138;28;20106;-68
2023/08/16 06:49:00;;;;;;;11.50;10.40;;;;;;;;;;5050661;28;20048;-68
2023/08/16 06:51:26;;;;;;;10.38;9.50;;;;;;;;;;5048561;28;20025;-68
2023/08/16 06:53:52;;;;;;;10.35;9.38;;;;;;;;;;5046196;28;20750;-68
2023/08/16 06:56:18;;;;;;;10.80;9.73;;;;;;;;;;5039978;28;20044;-68
2023/08/16 06:58:44;;;;;;;11.73;10.52;;;;;;;;;;5050202;28;20029;-67
2023/08/16 07:01:11;;;;;;;10.80;9.93;;;;;;;;;;5051211;28;20555;-67
2023/08/16 07:03:37;;;;;;;11.93;10.93;;;;;;;;;;5051295;28;20025;-67
2023/08/16 07:06:03;;;;;;;12.23;11.15;;;;;;;;;;5048827;28;20045;-67
2023/08/16 07:08:30;;;;;;;10.98;10.07;;;;;;;;;;5050412;28;20108;-67
2023/08/16 07:10:56;;;;;;;12.95;11.70;;;;;;;;;;5050293;28;20082;-67
2023/08/16 07:13:22;;;;;;;12.20;11.02;;;;;;;;;;5042381;28;20025;-68
2023/08/16 07:15:48;;;;;;;11.57;10.60;;;;;;;;;;5049614;28;20064;-68
2023/08/16 07:18:14;;;;;;;11.52;10.48;;;;;;;;;;5052007;28;20062;-68
2023/08/16 07:20:40;;;;;;;11.90;10.90;;;;;;;;;;5054975;28;20029;-68
2023/08/16 07:23:06;;;;;;;12.35;11.15;;;;;;;;;;5052268;28;20055;-68
2023/08/16 07:25:32;;;;;;;12.98;11.43;;;;;;;;;;5054173;28;20044;-69
2023/08/16 07:27:58;;;;;;;11.50;10.48;;;;;;;;;;5051586;28;20021;-67
2023/08/16 07:30:24;;;;;;;12.48;11.18;;;;;;;;;;5054247;28;20478;-67
2023/08/16 07:32:51;;;;;;;10.95;9.95;;;;;;;;;;5052946;28;20422;-67
2023/08/16 07:35:17;;;;;;;12.25;11.05;;;;;;;;;;5054370;28;20470;-67
2023/08/16 07:37:43;;;;;;;11.40;10.48;;;;;;;;;;5054423;28;20036;-67
2023/08/16 07:40:10;;;;;;;11.70;10.70;;;;;;;;;;5052427;28;20025;-67
2023/08/16 07:42:36;;;;;;;12.30;10.95;;;;;;;;;;5047729;28;20026;-67
2023/08/16 07:45:03;;;;;;;13.07;11.77;;;;;;;;;;5046526;28;20107;-67
2023/08/16 07:47:29;;;;;;;14.45;12.93;;;;;;;;;;5052712;28;20493;-67
2023/08/16 07:49:55;;;;;;;14.38;13.15;;;;;;;;;;5054200;28;20532;-68
2023/08/16 07:52:22;;;;;;;13.48;12.27;;;;;;;;;;5051679;28;20025;-68
2023/08/16 07:54:48;;;;;;;15.13;13.70;;;;;;;;;;5043348;28;20029;-67
2023/08/16 07:57:14;;;;;;;14.30;12.98;;;;;;;;;;5053306;28;20060;-67
2023/08/16 07:59:41;;;;;;;20.15;14.15;;;;;;;;;;5052473;28;20039;-68
2023/08/16 08:02:07;;;;;;;15.75;13.95;;;;;;;;;;5052545;28;20036;-68
2023/08/16 08:04:33;;;;;;;13.25;11.98;;;;;;;;;;5047534;28;20037;-67
2023/08/16 08:07:00;;;;;;;14.13;12.73;;;;;;;;;;5052762;28;20033;-67
2023/08/16 08:09:26;;;;;;;12.10;11.00;;;;;;;;;;5048523;28;20036;-67
2023/08/16 08:11:52;;;;;;;12.65;11.45;;;;;;;;;;5053667;28;20040;-67
2023/08/16 08:14:18;;;;;;;13.90;12.48;;;;;;;;;;5050138;28;20020;-67
2023/08/16 08:16:44;;;;;;;11.98;10.93;;;;;;;;;;5053735;28;20040;-67
2023/08/16 08:19:10;;;;;;;12.50;11.40;;;;;;;;;;5052616;28;20025;-69
2023/08/16 08:21:36;;;;;;;12.00;11.00;;;;;;;;;;5053271;28;20033;-67
2023/08/16 08:24:03;;;;;;;12.85;11.50;;;;;;;;;;5051970;28;20466;-66
2023/08/16 08:26:29;;;;;;;12.80;11.50;;;;;;;;;;5051815;28;20025;-67
2023/08/16 08:28:56;;;;;;;11.95;10.98;;;;;;;;;;5051513;28;20029;-66
2023/08/16 08:31:23;;;;;;;11.68;10.55;;;;;;;;;;5053408;28;20454;-67
2023/08/16 08:33:49;;;;;;;10.20;9.30;;;;;;;;;;5051377;28;20025;-66
2023/08/16 08:36:15;;;;;;;10.50;9.60;;;;;;;;;;5052072;28;20107;-67
2023/08/16 08:38:41;;;;;;;11.25;10.25;;;;;;;;;;5052043;28;20029;-66
2023/08/16 08:41:08;;;;;;;11.48;10.38;;;;;;;;;;5052643;28;20418;-67
2023/08/16 08:43:35;;;;;;;10.10;9.30;;;;;;;;;;5052353;28;20450;-68
2023/08/16 08:46:03;;;;;;;10.50;9.68;;;;;;;;;;5051838;28;20039;-68
2023/08/16 08:48:29;;;;;;;10.60;9.75;;;;;;;;;;5055097;28;20025;-67
2023/08/16 08:50:55;;;;;;;9.50;8.70;;;;;;;;;;5050527;28;20433;-67
2023/08/16 08:53:22;;;;;;;9.98;9.18;;;;;;;;;;5049821;28;20043;-67
2023/08/16 08:55:49;;;;;;;11.65;8.88;;;;;;;;;;5053072;28;20025;-67
2023/08/16 08:58:17;;;;;;;9.70;8.77;;;;;;;;;;5046506;28;20098;-67
2023/08/16 09:00:43;;;;;;;9.55;8.70;;;;;;;;;;5052311;28;20029;-67
2023/08/16 09:03:10;;;;;;;8.68;7.82;;;;;;;;;;5045368;28;20021;-67
2023/08/16 09:05:39;;;;;;;10.10;8.68;;;;;;;;;;5040118;28;20099;-67
2023/08/16 09:08:05;;;;;;;10.70;9.23;;;;;;;;;;5051051;28;20489;-67
2023/08/16 09:10:37;;;;;;;9.32;8.40;;;;;;;;;;5052782;28;20477;-67
2023/08/16 09:13:06;;;;;;;9.85;8.90;;;;;;;;;;5051656;28;20042;-67
2023/08/16 09:15:32;;;;;;;8.90;8.07;;;;;;;;;;5051224;28;20028;-66
2023/08/16 09:18:11;;;;;;;9.85;8.65;;;;;;;;;;5047280;28;20039;-67
2023/08/16 09:20:37;;;;;;;9.52;8.68;;;;;;;;;;5052118;28;20028;-67
2023/08/16 09:23:07;;;;;;;8.82;7.90;;;;;;;;;;5052257;28;20029;-66
2023/08/16 09:25:34;;;;;;;10.20;9.35;;;;;;;;;;5051015;28;20048;-67
2023/08/16 09:28:01;;;;;;;9.20;8.02;;;;;;;;;;5048535;28;20021;-67
2023/08/16 09:30:28;;;;;;;8.48;7.82;;;;;;;;;;5052264;28;20071;-67
2023/08/16 09:32:54;;;;;;;8.70;7.90;;;;;;;;;;5053092;28;20060;-67
2023/08/16 09:35:26;;;;;;;8.93;8.10;;;;;;;;;;5050477;28;20029;-68
2023/08/16 09:37:56;;;;;;;9.50;8.77;;;;;;;;;;5047082;28;20025;-67
2023/08/16 09:40:23;;;;;;;9.85;8.77;;;;;;;;;;5049973;28;20039;-68
2023/08/16 09:42:49;;;;;;;10.50;9.68;;;;;;;;;;5051707;28;20025;-68
2023/08/16 09:45:15;;;;;;;9.80;8.90;;;;;;;;;;5051840;28;20041;-68
2023/08/16 09:47:45;;;;;;;8.48;7.78;;;;;;;;;;5056222;28;20017;-68
2023/08/16 09:50:12;;;;;;;8.90;8.20;;;29.30;99.90;;;;;;5051362;28;20112;-68
2023/08/16 09:52:39;;;;;;;9.10;8.40;;;30.60;99.90;;;;;;5051575;28;20032;-68
2023/08/16 09:55:08;;;;;;;8.82;8.13;;;30.60;99.90;;;;;;5051756;28;20483;-67
2023/08/16 09:57:34;;;;;;;9.20;8.40;;;30.50;99.90;;;;;;5047595;28;20026;-68
2023/08/16 10:00:02;;;;;;;9.52;8.55;;;30.60;99.90;;;;;;5050049;28;20479;-68
2023/08/16 10:02:29;;;;;;;9.02;8.20;;;30.50;99.90;;;;;;5052135;28;20028;-68
2023/08/16 10:04:56;;;;;;;9.55;8.63;;;30.60;99.90;;;;;;5048767;28;20506;-67
2023/08/16 10:07:23;;;;;;;8.48;7.78;;;30.60;99.90;;;;;;5051659;28;20033;-67
2023/08/16 10:09:51;;;;;;;7.55;6.95;;;30.70;99.90;;;;;;5049574;28;20021;-68
2023/08/16 10:12:17;;;;;;;8.90;8.18;;;30.70;99.90;;;;;;5051491;28;20021;-66
2023/08/16 10:14:43;;;;;;;8.18;7.43;;;30.80;99.90;;;;;;5051798;28;20052;-67
2023/08/16 10:17:12;;;;;;;7.88;7.28;;;30.90;99.90;;;;;;5051728;28;20104;-67
2023/08/16 10:19:42;;;;;;;8.80;8.10;;;30.90;99.90;;;;;;5049707;28;20406;-67
2023/08/16 10:22:15;;;;;;;8.63;7.82;;;31.00;99.90;;;;;;5049516;28;20437;-67
2023/08/16 10:24:45;;;;;;;8.48;7.88;;;31.00;99.90;;;;;;5051654;28;20124;-67
2023/08/16 10:27:12;;;;;;;8.55;7.95;;;31.20;99.90;;;;;;5051144;28;20167;-66
2023/08/16 10:29:41;;;;;;;8.55;7.75;;;31.40;99.90;;;;;;5050617;28;20037;-67
2023/08/16 10:32:11;;;;;;;8.50;7.90;;;31.30;99.90;;;;;;5048229;28;20029;-67
2023/08/16 10:34:38;;;;;;;8.32;7.72;;;31.30;99.90;;;;;;5046472;28;20021;-67
2023/08/16 10:37:06;;;;;;;7.72;7.22;;;31.30;99.90;;;;;;5051058;28;20180;-67
2023/08/16 10:39:31;;;;;;;8.38;7.70;;;31.30;99.90;;;;;;5050664;28;20025;-67
2023/08/16 10:42:05;;;;;;;9.50;8.70;;;31.50;99.90;;;;;;5050632;28;20033;-67
2023/08/16 10:44:32;;;;;;;8.75;8.05;;;31.50;99.90;;;;;;5042664;28;20022;-67
2023/08/16 10:47:01;;;;;;;8.73;7.95;;;31.60;99.90;;;;;;5051661;28;20036;-68
2023/08/16 10:49:44;;;;;;;8.73;8.07;;;31.50;99.90;;;;;;5051081;28;20052;-67
2023/08/16 10:52:10;;;;;;;8.15;7.55;;;31.50;99.90;;;;;;5051410;28;20028;-67
2023/08/16 10:54:41;;;;;;;8.50;7.78;;;31.60;99.90;;;;;;5052677;28;20446;-68
2023/08/16 10:57:08;;;;;;;8.88;8.10;;;31.80;99.90;;;;;;5055215;28;20364;-66
2023/08/16 10:59:41;;;;;;;9.73;8.77;;;31.70;99.90;;;;;;5052839;28;20021;-67
2023/08/16 11:02:14;;;;;;;8.65;7.88;;;31.70;99.90;;;;;;5052667;28;20029;-66
2023/08/16 11:04:42;;;;;;;9.23;8.43;;;31.70;99.90;;;;;;5050182;28;20053;-66
2023/08/16 11:07:09;;;;;;;8.55;7.80;;;31.90;99.90;;;;;;5054918;28;20112;-66
2023/08/16 11:09:36;;;;;;;8.98;8.18;;;32.00;99.90;;;;;;5049943;28;20025;-68
2023/08/16 11:12:08;;;;;;;8.52;7.82;;;32.10;99.90;;;;;;5049132;28;20066;-67
2023/08/16 11:14:34;;;;;;;8.73;7.93;;;32.00;99.90;;;;;;5042031;28;20759;-67
2023/08/16 11:17:01;;;;;;;8.88;8.13;;;32.20;99.90;;;;;;5054105;28;20071;-67
2023/08/16 11:19:26;;;;;;;9.77;7.85;;;32.20;99.90;;;;;;5054719;28;20025;-67
2023/08/16 11:21:52;;;;;;;9.45;8.10;;;32.40;99.90;;;;;;5054555;28;20033;-67
2023/08/16 11:24:18;;;;;;;9.80;8.20;;;32.40;99.90;;;;;;5049109;28;20032;-67
2023/08/16 11:26:44;;;;;;;9.85;7.78;;;32.40;99.90;;;;;;5047409;28;20025;-66
2023/08/16 11:29:09;;;;;;;8.55;7.82;;;32.50;99.90;;;;;;5053821;28;20040;-66
2023/08/16 11:31:36;;;;;;;10.93;8.73;;;32.60;99.90;;;;;;5054199;28;20086;-66
2023/08/16 11:34:08;;;;;;;8.95;8.10;;;32.70;99.90;;;;;;5046016;28;20026;-67
2023/08/16 11:36:39;;;;;;;8.18;7.57;;;32.90;99.90;;;;;;5054087;28;20036;-66
2023/08/16 11:39:11;;;;;;;9.20;8.27;;;32.90;99.90;;;;;;5053777;28;20035;-67
2023/08/16 11:41:37;;;;;;;9.65;8.75;;;33.10;99.90;;;;;;5054296;28;20234;-67
2023/08/16 11:44:03;;;;;;;8.40;7.78;;;33.20;99.90;;;;;;5053093;28;20522;-67
2023/08/16 11:46:43;;;;;;;9.23;8.52;;;33.30;99.90;;;;;;5052660;28;20017;-66
2023/08/16 11:49:09;;;;;;;8.70;7.82;;;33.30;99.90;;;;;;5052987;28;20107;-67
2023/08/16 11:51:44;;;;;;;9.52;8.73;;;33.40;99.90;;;;;;5054371;28;20500;-67
2023/08/16 11:54:21;;;;;;;8.60;7.90;;;33.30;99.90;;;;;;5053380;28;20017;-67
2023/08/16 11:56:47;;;;;;;9.07;8.30;;;33.70;99.90;;;;;;5047871;28;20083;-67
2023/08/16 11:59:23;;;;;;;10.30;9.30;;;;;;;;;;5047625;28;20486;-67
2023/08/16 12:01:49;;;;;;;8.80;8.20;;;;;;;;;;5044676;28;20025;-66
2023/08/16 12:04:17;;;;;;;9.80;9.00;;;41.50;99.90;;;;;;5050865;28;20041;-68
2023/08/16 12:06:46;;;;;;;10.10;9.10;;;42.40;99.90;;;;;;5052860;28;20049;-67
2023/08/16 12:09:16;;;;;;;9.90;9.00;;;42.50;99.90;;;;;;5052726;28;20025;-66
2023/08/16 12:11:41;;;;;;;9.65;8.85;;;42.80;99.90;;;;;;5054866;28;20032;-67
2023/08/16 12:14:07;;;;;;;9.65;8.95;;;42.20;99.90;;;;;;5053335;28;20024;-66
2023/08/16 12:16:36;;;;;;;10.40;9.40;;;41.70;99.90;;;;;;5054596;28;20116;-66
2023/08/16 12:19:01;;;;;;;9.75;9.05;;;41.70;99.90;;;;;;5049467;28;20024;-66
2023/08/16 12:21:27;;;;;;;9.90;9.10;;;41.90;99.90;;;;;;5053382;28;20108;-67
2023/08/16 12:23:53;;;;;;;10.25;9.25;;;43.00;99.90;;;;;;5054407;28;20029;-67
2023/08/16 12:26:18;;;;;;;9.50;9.00;;;44.10;99.90;;;;;;5053539;28;20037;-67
2023/08/16 12:28:44;;;;;;;9.60;8.90;;;44.50;99.90;;;;;;5052178;28;20025;-67
2023/08/16 12:31:11;;;;;;;11.13;10.52;;;45.60;99.90;;;;;;5052066;28;20028;-67
2023/08/16 12:33:37;;;;;;;10.48;9.68;;;46.10;99.90;;;;;;5053665;28;20032;-67
2023/08/16 12:36:03;;;;;;;9.88;9.27;;;46.00;99.90;;;;;;5050194;28;20025;-67
2023/08/16 12:38:29;;;;;;;11.50;10.50;;;46.50;99.90;;;;;;5054264;28;20013;-67
2023/08/16 12:40:54;;;;;;;10.38;9.48;;;45.60;99.90;;;;;;5052105;28;20478;-67
2023/08/16 12:43:20;;;;;;;10.40;9.68;;;46.00;99.90;;;;;;5054227;28;20025;-67
2023/08/16 12:45:45;;;;;;;10.40;9.70;;;45.30;99.90;;;;;;5048795;28;20613;-66
2023/08/16 12:48:11;;;;;;;10.05;9.35;;;44.80;99.90;;;;;;5053264;28;20487;-67
2023/08/16 12:50:37;;;;;;;10.45;9.65;;;43.50;99.90;;;;;;5053018;28;20037;-67
2023/08/16 12:53:03;;;;;;;9.85;9.15;;;;;;;;;;5052741;28;20032;-67
2023/08/16 12:55:29;;;;;;;9.05;8.55;;;42.30;99.90;;;;;;5048147;28;20048;-67
2023/08/16 12:57:56;;;;;;;10.05;9.25;;;41.40;99.90;;;;;;5050651;28;20122;-66
2023/08/16 13:00:22;;;;;;;10.93;9.88;;;40.80;99.90;;;;;;5052743;28;20057;-66
2023/08/16 13:02:48;;;;;;;10.43;9.73;;;40.40;99.90;;;;;;5052075;28;20075;-67
2023/08/16 13:05:14;;;;;;;10.52;9.52;;;40.10;99.90;;;;;;5052296;28;20080;-67
2023/08/16 13:07:39;;;;;;;11.07;10.38;;;39.60;99.90;;;;;;5050423;28;20025;-66
2023/08/16 13:10:08;;;;;;;10.23;9.43;;;39.30;99.90;;;;;;5049668;28;20045;-67
2023/08/16 13:12:34;;;;;;;9.60;9.00;;;39.70;99.90;;;;;;5051868;28;20033;-66
2023/08/16 13:15:00;;;;;;;10.02;9.32;;;39.90;99.90;;;;;;5050140;28;20111;-66
2023/08/16 13:17:26;;;;;;;10.60;9.90;;;39.90;99.90;;;;;;5047500;28;20111;-70
2023/08/16 13:19:52;;;;;;;9.93;9.23;;;39.80;99.90;;;;;;5046615;28;20035;-68
2023/08/16 13:22:17;;;;;;;10.32;9.45;;;40.00;99.90;;;;;;5038683;28;20025;-67
2023/08/16 13:24:43;;;;;;;9.80;9.18;;;39.40;99.90;;;;;;5045677;28;20064;-67
2023/08/16 13:27:09;;;;;;;10.23;9.60;;;39.10;99.90;;;;;;5043324;28;20036;-68
2023/08/16 13:29:34;;;;;;;10.57;9.82;;;39.20;99.90;;;;;;5050615;28;20021;-65
2023/08/16 13:32:00;;;;;;;9.20;8.55;;;39.70;99.90;;;;;;5051407;28;20037;-66
2023/08/16 13:34:26;;;;;;;9.70;9.15;;;40.10;99.90;;;;;;5052097;28;20025;-66
2023/08/16 13:37:16;;;;;;;9.27;8.68;;;40.00;99.90;;;;;;5050797;28;20059;-66
2023/08/16 13:39:42;;;;;;;9.65;9.05;;;40.30;99.90;;;;;;5049730;28;20121;-66
2023/08/16 13:42:07;;;;;;;9.25;8.65;;;40.30;99.90;;;;;;5045908;28;20494;-67
2023/08/16 13:44:34;;;;;;;9.95;9.15;;;40.30;99.90;;;;;;5050254;28;20041;-67
2023/08/16 13:47:00;;;;;;;9.52;8.82;;;40.30;99.90;;;;;;5052083;28;20021;-68
2023/08/16 13:49:25;;;;;;;9.10;8.57;;;40.40;99.90;;;;;;5048690;28;20029;-68
2023/08/16 13:51:51;;;;;;;9.20;8.57;;;40.20;99.90;;;;;;5049297;28;20025;-67
2023/08/16 13:54:18;;;;;;;10.43;9.52;;;40.70;99.90;;;;;;5050845;28;20028;-66
2023/08/16 13:56:43;;;;;;;10.10;9.02;;;41.40;99.90;;;;;;5051927;28;20402;-67
2023/08/16 13:59:09;;;;;;;8.60;8.00;;;42.90;99.90;;;;;;5050659;28;20017;-66